createdAt,value
2019-01-15T00:00:31.768Z,4.59
2019-01-15T00:01:31.105Z,4.56
2019-01-15T00:02:31.621Z,4.57
2019-01-15T00:03:31.689Z,4.54
2019-01-15T00:04:31.738Z,4.59
2019-01-15T00:05:31.629Z,4.54
2019-01-15T00:06:31.633Z,4.57
2019-01-15T00:07:31.972Z,4.59
2019-01-15T00:08:31.688Z,4.56
2019-01-15T00:09:31.622Z,4.64
2019-01-15T00:10:31.687Z,4.68
2019-01-15T00:11:31.686Z,4.56
2019-01-15T00:12:31.938Z,4.59
2019-01-15T00:13:31.223Z,4.56
2019-01-15T00:14:31.202Z,4.61
2019-01-15T00:15:32.118Z,4.67
2019-01-15T00:16:31.149Z,4.50
2019-01-15T00:17:31.593Z,4.51
2019-01-15T00:18:31.184Z,4.44
2019-01-15T00:19:32.886Z,4.64
2019-01-15T00:20:31.153Z,4.46
2019-01-15T00:21:31.122Z,4.62
2019-01-15T00:22:31.042Z,4.53
2019-01-15T00:23:31.127Z,4.46
2019-01-15T00:24:31.095Z,4.57
2019-01-15T00:25:31.063Z,4.57
2019-01-15T00:26:31.064Z,4.62
2019-01-15T00:27:30.859Z,4.34
2019-01-15T00:28:31.333Z,4.49
2019-01-15T00:29:31.158Z,4.42
2019-01-15T00:30:31.160Z,4.49
2019-01-15T00:31:31.185Z,4.51
2019-01-15T00:32:31.095Z,4.57
2019-01-15T00:33:31.185Z,4.44
2019-01-15T00:34:31.190Z,4.44
2019-01-15T00:35:31.122Z,4.39
2019-01-15T00:36:31.183Z,4.49
2019-01-15T00:37:31.206Z,4.42
2019-01-15T00:38:31.195Z,4.47
2019-01-15T00:39:31.197Z,4.42
2019-01-15T00:40:31.197Z,4.44
2019-01-15T00:41:31.216Z,4.35
2019-01-15T00:42:31.246Z,4.31
2019-01-15T00:43:31.215Z,4.38
2019-01-15T00:44:31.272Z,4.26
2019-01-15T00:45:31.304Z,4.39
2019-01-15T00:46:31.288Z,4.47
2019-01-15T00:47:31.321Z,4.50
2019-01-15T00:48:31.260Z,4.53
2019-01-15T00:49:31.332Z,4.38
2019-01-15T00:50:31.248Z,4.51
2019-01-15T00:51:31.199Z,4.38
2019-01-15T00:52:31.192Z,4.42
2019-01-15T00:53:31.188Z,4.49
2019-01-15T00:54:31.106Z,4.46
2019-01-15T00:55:31.201Z,4.49
2019-01-15T00:56:31.191Z,4.54
2019-01-15T00:57:31.118Z,4.56
2019-01-15T00:58:31.640Z,4.46
2019-01-15T00:59:31.230Z,4.46
2019-01-15T01:00:31.615Z,4.38
2019-01-15T01:01:30.630Z,4.43
2019-01-15T01:02:31.189Z,4.36
2019-01-15T01:03:31.245Z,4.43
2019-01-15T01:04:31.608Z,4.47
2019-01-15T01:05:30.789Z,4.38
2019-01-15T01:06:31.191Z,4.43
2019-01-15T01:07:31.266Z,4.35
2019-01-15T01:08:31.151Z,4.36
2019-01-15T01:09:31.205Z,4.46
2019-01-15T01:10:31.202Z,4.51
2019-01-15T01:11:31.259Z,4.57
2019-01-15T01:12:31.045Z,4.57
2019-01-15T01:13:32.662Z,4.75
2019-01-15T01:14:32.717Z,4.65
2019-01-15T01:15:30.671Z,4.74
2019-01-15T01:16:30.643Z,4.71
2019-01-15T01:17:30.631Z,4.65
2019-01-15T01:18:30.685Z,4.57
2019-01-15T01:19:30.641Z,4.53
2019-01-15T01:20:30.681Z,4.43
2019-01-15T01:21:30.633Z,4.47
2019-01-15T01:22:30.934Z,4.47
2019-01-15T01:23:31.191Z,4.39
2019-01-15T01:24:30.684Z,4.32
2019-01-15T01:25:31.119Z,4.46
2019-01-15T01:26:30.550Z,4.38
2019-01-15T01:27:30.684Z,4.39
2019-01-15T01:28:30.639Z,4.34
2019-01-15T01:29:30.646Z,4.18
2019-01-15T01:30:30.654Z,4.28
2019-01-15T01:31:30.709Z,4.36
2019-01-15T01:32:30.687Z,4.24
2019-01-15T01:33:30.798Z,4.31
2019-01-15T01:34:30.716Z,4.21
2019-01-15T01:35:30.647Z,4.44
2019-01-15T01:36:30.664Z,4.43
2019-01-15T01:37:30.702Z,4.39
2019-01-15T01:38:30.700Z,4.38
2019-01-15T01:39:30.771Z,4.47
2019-01-15T01:40:30.721Z,4.35
2019-01-15T01:41:30.719Z,4.29
2019-01-15T01:42:30.767Z,4.36
2019-01-15T01:43:30.696Z,4.44
2019-01-15T01:44:30.227Z,4.50
2019-01-15T01:45:30.691Z,4.51
2019-01-15T01:46:30.696Z,4.38
2019-01-15T01:47:30.673Z,4.42
2019-01-15T01:48:30.706Z,4.43
2019-01-15T01:49:30.733Z,4.50
2019-01-15T01:50:30.646Z,4.32
2019-01-15T01:51:30.886Z,4.36
2019-01-15T01:52:30.694Z,4.18
2019-01-15T01:53:30.739Z,4.20
2019-01-15T01:54:30.752Z,4.29
2019-01-15T01:55:30.695Z,4.16
2019-01-15T01:56:30.784Z,4.16
2019-01-15T01:57:30.702Z,4.17
2019-01-15T01:58:31.136Z,4.32
2019-01-15T01:59:30.213Z,4.08
2019-01-15T02:00:30.714Z,4.17
2019-01-15T02:01:30.744Z,4.28
2019-01-15T02:02:30.693Z,4.29
2019-01-15T02:03:30.686Z,4.25
2019-01-15T02:04:30.695Z,4.32
2019-01-15T02:06:30.688Z,4.24
2019-01-15T02:07:30.688Z,4.28
2019-01-15T02:08:30.675Z,4.36
2019-01-15T02:09:30.882Z,4.18
2019-01-15T02:10:30.870Z,4.21
2019-01-15T02:11:30.845Z,4.29
2019-01-15T02:12:36.656Z,4.36
2019-01-15T02:13:36.480Z,4.21
2019-01-15T02:14:30.704Z,4.14
2019-01-15T02:15:30.803Z,4.20
2019-01-15T02:16:30.884Z,4.28
2019-01-15T02:17:31.658Z,4.32
2019-01-15T02:18:30.582Z,4.32
2019-01-15T02:19:30.173Z,4.34
2019-01-15T02:21:29.972Z,4.21
2019-01-15T02:22:30.019Z,4.34
2019-01-15T02:23:29.930Z,4.36
2019-01-15T02:24:30.091Z,4.35
2019-01-15T02:25:30.708Z,4.17
2019-01-15T02:26:30.405Z,4.21
2019-01-15T02:27:30.892Z,4.14
2019-01-15T02:28:30.207Z,4.16
2019-01-15T02:29:30.116Z,4.21
2019-01-15T02:30:30.170Z,4.34
2019-01-15T02:31:30.138Z,4.25
2019-01-15T02:32:30.274Z,4.18
2019-01-15T02:33:30.185Z,4.17
2019-01-15T02:34:30.286Z,4.16
2019-01-15T02:35:30.221Z,4.25
2019-01-15T02:36:30.226Z,4.32
2019-01-15T02:37:30.286Z,4.16
2019-01-15T02:38:30.208Z,4.13
2019-01-15T02:39:30.195Z,4.25
2019-01-15T02:40:30.220Z,4.14
2019-01-15T02:41:30.147Z,3.99
2019-01-15T02:42:29.647Z,4.11
2019-01-15T02:43:29.730Z,4.11
2019-01-15T02:44:30.616Z,4.13
2019-01-15T02:45:30.657Z,4.28
2019-01-15T02:46:29.987Z,4.24
2019-01-15T02:48:30.316Z,4.16
2019-01-15T02:49:30.644Z,4.18
2019-01-15T02:50:30.658Z,4.10
2019-01-15T02:51:30.635Z,4.14
2019-01-15T02:52:29.806Z,4.00
2019-01-15T02:53:30.183Z,4.06
2019-01-15T02:54:30.107Z,4.00
2019-01-15T02:55:30.208Z,4.06
2019-01-15T02:56:30.154Z,4.08
2019-01-15T02:57:30.206Z,4.11
2019-01-15T02:58:30.210Z,4.13
2019-01-15T02:59:30.159Z,4.14
2019-01-15T03:00:30.174Z,4.14
2019-01-15T03:01:30.165Z,4.13
2019-01-15T03:02:30.196Z,4.20
2019-01-15T03:03:30.293Z,3.96
2019-01-15T03:04:30.122Z,4.07
2019-01-15T03:05:30.265Z,4.18
2019-01-15T03:06:36.140Z,4.07
2019-01-15T03:07:30.162Z,4.04
2019-01-15T03:08:29.810Z,4.08
2019-01-15T03:09:30.017Z,4.14
2019-01-15T03:10:30.722Z,4.16
2019-01-15T03:12:35.733Z,4.06
2019-01-15T03:13:30.173Z,4.08
2019-01-15T03:14:35.612Z,4.04
2019-01-15T03:15:30.435Z,4.00
2019-01-15T03:16:29.811Z,3.99
2019-01-15T03:17:30.438Z,4.04
2019-01-15T03:18:30.188Z,4.02
2019-01-15T03:19:29.925Z,4.14
2019-01-15T03:20:30.412Z,4.13
2019-01-15T03:21:29.836Z,4.08
2019-01-15T03:22:29.706Z,4.13
2019-01-15T03:23:30.103Z,4.00
2019-01-15T03:24:29.200Z,4.02
2019-01-15T03:25:29.664Z,4.17
2019-01-15T03:26:29.625Z,4.17
2019-01-15T03:27:29.903Z,4.04
2019-01-15T03:28:29.256Z,4.10
2019-01-15T03:29:29.712Z,4.08
2019-01-15T03:30:29.727Z,4.02
2019-01-15T03:31:29.666Z,4.13
2019-01-15T03:32:29.700Z,4.08
2019-01-15T03:33:29.795Z,4.11
2019-01-15T03:34:29.716Z,4.11
2019-01-15T03:35:29.723Z,4.06
2019-01-15T03:36:29.665Z,4.17
2019-01-15T03:37:29.623Z,4.11
2019-01-15T03:38:30.158Z,4.04
2019-01-15T03:39:29.204Z,4.02
2019-01-15T03:40:29.655Z,4.02
2019-01-15T03:41:29.942Z,3.93
2019-01-15T03:42:29.685Z,3.92
2019-01-15T03:43:29.705Z,3.95
2019-01-15T03:44:29.704Z,4.08
2019-01-15T03:45:29.789Z,3.90
2019-01-15T03:46:29.102Z,3.93
2019-01-15T03:47:29.682Z,3.86
2019-01-15T03:48:29.715Z,3.93
2019-01-15T03:49:29.722Z,4.04
2019-01-15T03:50:29.782Z,4.13
2019-01-15T03:51:30.452Z,4.13
2019-01-15T03:52:29.634Z,4.11
2019-01-15T03:53:29.727Z,4.14
2019-01-15T03:54:29.753Z,4.11
2019-01-15T03:55:30.158Z,4.13
2019-01-15T03:56:29.695Z,4.24
2019-01-15T03:57:29.748Z,4.16
2019-01-15T03:58:29.790Z,4.25
2019-01-15T03:59:29.724Z,4.26
2019-01-15T04:00:29.511Z,4.26
2019-01-15T04:01:29.646Z,4.17
2019-01-15T04:02:29.112Z,4.21
2019-01-15T04:03:30.156Z,4.13
2019-01-15T04:04:29.117Z,4.20
2019-01-15T04:05:29.133Z,4.21
2019-01-15T04:06:29.148Z,4.26
2019-01-15T04:07:29.069Z,4.16
2019-01-15T04:08:29.344Z,4.25
2019-01-15T04:09:30.199Z,4.32
2019-01-15T04:10:29.165Z,4.35
2019-01-15T04:11:29.250Z,4.44
2019-01-15T04:12:28.616Z,4.31
2019-01-15T04:13:30.156Z,4.14
2019-01-15T04:14:29.458Z,4.13
2019-01-15T04:15:29.620Z,4.18
2019-01-15T04:16:29.012Z,4.26
2019-01-15T04:17:28.974Z,4.29
2019-01-15T04:18:29.222Z,4.31
2019-01-15T04:19:29.247Z,4.42
2019-01-15T04:20:29.201Z,4.32
2019-01-15T04:21:29.184Z,4.35
2019-01-15T04:22:29.137Z,4.29
2019-01-15T04:23:29.204Z,4.25
2019-01-15T04:25:29.328Z,4.32
2019-01-15T04:26:29.156Z,4.29
2019-01-15T04:27:29.331Z,4.43
2019-01-15T04:28:29.217Z,4.32
2019-01-15T04:29:29.126Z,4.26
2019-01-15T04:30:29.305Z,4.34
2019-01-15T04:31:29.200Z,4.29
2019-01-15T04:32:29.219Z,4.39
2019-01-15T04:33:28.643Z,4.38
2019-01-15T04:34:29.309Z,4.34
2019-01-15T04:35:29.195Z,4.36
2019-01-15T04:36:29.199Z,4.31
2019-01-15T04:37:29.240Z,4.35
2019-01-15T04:38:29.661Z,4.35
2019-01-15T04:39:28.995Z,4.34
2019-01-15T04:40:28.922Z,4.43
2019-01-15T04:41:28.948Z,4.26
2019-01-15T04:42:29.118Z,4.29
2019-01-15T04:43:28.964Z,4.36
2019-01-15T04:44:28.979Z,4.39
2019-01-15T04:45:28.615Z,4.50
2019-01-15T04:46:29.663Z,4.42
2019-01-15T04:47:29.204Z,4.32
2019-01-15T04:48:29.211Z,4.26
2019-01-15T04:49:29.237Z,4.38
2019-01-15T04:50:29.211Z,4.46
2019-01-15T04:51:29.213Z,4.46
2019-01-15T04:52:29.662Z,4.46
2019-01-15T04:53:28.701Z,4.43
2019-01-15T04:54:29.211Z,4.38
2019-01-15T04:55:29.639Z,4.42
2019-01-15T04:56:29.206Z,4.47
2019-01-15T04:57:29.156Z,4.44
2019-01-15T04:58:30.739Z,4.56
2019-01-15T04:59:30.734Z,4.47
2019-01-15T05:00:28.642Z,4.44
2019-01-15T05:01:29.114Z,4.61
2019-01-15T05:02:28.705Z,4.59
2019-01-15T05:03:28.640Z,4.54
2019-01-15T05:04:28.652Z,4.56
2019-01-15T05:05:28.668Z,4.50
2019-01-15T05:06:28.809Z,4.49
2019-01-15T05:07:28.958Z,4.34
2019-01-15T05:08:28.862Z,4.47
2019-01-15T05:09:29.099Z,4.44
2019-01-15T05:10:28.699Z,4.47
2019-01-15T05:11:28.668Z,4.46
2019-01-15T05:12:43.208Z,4.47
2019-01-15T05:13:29.120Z,4.42
2019-01-15T05:14:28.365Z,4.51
2019-01-15T05:15:28.433Z,4.47
2019-01-15T05:16:28.665Z,4.50
2019-01-15T05:17:29.076Z,4.51
2019-01-15T05:18:28.404Z,4.61
2019-01-15T05:19:29.162Z,4.53
2019-01-15T05:20:28.716Z,4.56
2019-01-15T05:21:29.138Z,4.56
2019-01-15T05:22:27.644Z,4.67
2019-01-15T05:23:28.662Z,4.68
2019-01-15T05:24:28.684Z,4.53
2019-01-15T05:25:28.457Z,4.50
2019-01-15T05:26:28.402Z,4.46
2019-01-15T05:27:29.179Z,4.53
2019-01-15T05:28:28.707Z,4.62
2019-01-15T05:29:29.180Z,4.67
2019-01-15T05:30:28.702Z,4.74
2019-01-15T05:31:28.683Z,4.62
2019-01-15T05:32:28.746Z,4.47
2019-01-15T05:33:28.914Z,4.56
2019-01-15T05:34:28.908Z,4.57
2019-01-15T05:35:28.008Z,4.59
2019-01-15T05:36:28.342Z,4.68
2019-01-15T05:37:28.118Z,4.57
2019-01-15T05:38:29.169Z,4.44
2019-01-15T05:39:28.811Z,4.56
2019-01-15T05:40:29.102Z,4.59
2019-01-15T05:41:28.205Z,4.57
2019-01-15T05:42:28.696Z,4.64
2019-01-15T05:43:35.238Z,4.74
2019-01-15T05:44:34.684Z,4.68
2019-01-15T05:45:28.812Z,4.69
2019-01-15T05:46:28.699Z,4.72
2019-01-15T05:47:29.160Z,4.64
2019-01-15T05:48:28.469Z,4.57
2019-01-15T05:49:28.601Z,4.59
2019-01-15T05:50:28.706Z,4.57
2019-01-15T05:51:28.688Z,4.54
2019-01-15T05:52:28.675Z,4.74
2019-01-15T05:53:29.139Z,4.72
2019-01-15T05:54:28.643Z,4.77
2019-01-15T05:55:30.153Z,4.71
2019-01-15T05:56:28.155Z,4.74
2019-01-15T05:57:28.202Z,4.67
2019-01-15T05:58:30.216Z,4.74
2019-01-15T05:59:30.202Z,4.69
2019-01-15T06:00:28.466Z,4.72
2019-01-15T06:01:28.660Z,4.72
2019-01-15T06:02:28.012Z,4.80
2019-01-15T06:03:28.452Z,4.80
2019-01-15T06:04:29.176Z,4.79
2019-01-15T06:05:28.187Z,4.71
2019-01-15T06:06:28.410Z,4.83
2019-01-15T06:07:33.580Z,4.88
2019-01-15T06:08:27.950Z,4.83
2019-01-15T06:09:28.228Z,4.84
2019-01-15T06:10:28.840Z,4.83
2019-01-15T06:11:28.225Z,4.84
2019-01-15T06:12:28.214Z,4.83
2019-01-15T06:13:27.727Z,4.88
2019-01-15T06:14:28.621Z,4.86
2019-01-15T06:15:28.664Z,4.94
2019-01-15T06:16:28.629Z,4.87
2019-01-15T06:17:28.643Z,4.97
2019-01-15T06:18:28.637Z,5.01
2019-01-15T06:19:28.375Z,5.06
2019-01-15T06:20:27.836Z,5.06
2019-01-15T06:21:28.135Z,5.08
2019-01-15T06:22:28.160Z,4.93
2019-01-15T06:23:28.140Z,4.90
2019-01-15T06:24:27.990Z,4.88
2019-01-15T06:25:28.156Z,4.90
2019-01-15T06:26:28.621Z,4.90
2019-01-15T06:27:29.687Z,4.88
2019-01-15T06:28:28.191Z,4.83
2019-01-15T06:29:28.251Z,4.90
2019-01-15T06:30:28.208Z,4.88
2019-01-15T06:31:28.252Z,5.01
2019-01-15T06:32:28.207Z,4.97
2019-01-15T06:33:28.266Z,4.94
2019-01-15T06:34:28.206Z,4.94
2019-01-15T06:35:28.134Z,4.97
2019-01-15T06:36:28.621Z,4.93
2019-01-15T06:37:27.886Z,4.90
2019-01-15T06:38:27.880Z,4.91
2019-01-15T06:39:28.359Z,4.97
2019-01-15T06:40:27.703Z,4.90
2019-01-15T06:41:28.199Z,4.88
2019-01-15T06:42:28.664Z,4.88
2019-01-15T06:43:27.998Z,5.01
2019-01-15T06:44:28.665Z,4.96
2019-01-15T06:45:28.238Z,4.87
2019-01-15T06:46:28.658Z,4.90
2019-01-15T06:47:28.162Z,4.90
2019-01-15T06:48:28.216Z,5.05
2019-01-15T06:49:28.264Z,4.96
2019-01-15T06:50:30.674Z,5.11
2019-01-15T06:51:28.213Z,5.05
2019-01-15T06:52:28.047Z,5.12
2019-01-15T06:53:29.161Z,5.05
2019-01-15T06:54:28.209Z,5.05
2019-01-15T06:55:28.680Z,5.15
2019-01-15T06:56:30.180Z,5.09
2019-01-15T06:57:27.700Z,5.02
2019-01-15T06:58:28.236Z,5.19
2019-01-15T06:59:29.159Z,5.11
2019-01-15T07:00:27.945Z,5.14
2019-01-15T07:01:28.153Z,5.19
2019-01-15T07:02:27.700Z,5.19
2019-01-15T07:03:27.942Z,5.19
2019-01-15T07:04:27.574Z,5.19
2019-01-15T07:05:27.459Z,5.24
2019-01-15T07:06:27.705Z,5.26
2019-01-15T07:07:27.888Z,5.22
2019-01-15T07:08:27.574Z,5.27
2019-01-15T07:09:31.029Z,5.27
2019-01-15T07:10:27.747Z,5.35
2019-01-15T07:11:27.829Z,5.29
2019-01-15T07:12:28.378Z,5.38
2019-01-15T07:13:27.720Z,5.42
2019-01-15T07:14:27.743Z,5.42
2019-01-15T07:15:27.792Z,5.42
2019-01-15T07:16:28.154Z,5.38
2019-01-15T07:17:28.167Z,5.38
2019-01-15T07:18:27.690Z,5.37
2019-01-15T07:19:27.475Z,5.37
2019-01-15T07:20:27.581Z,5.51
2019-01-15T07:21:27.416Z,5.40
2019-01-15T07:22:27.509Z,5.47
2019-01-15T07:23:27.510Z,5.42
2019-01-15T07:24:27.623Z,5.41
2019-01-15T07:25:27.461Z,5.30
2019-01-15T07:26:28.164Z,5.42
2019-01-15T07:27:27.263Z,5.48
2019-01-15T07:28:28.160Z,5.49
2019-01-15T07:29:28.173Z,5.47
2019-01-15T07:30:27.533Z,5.62
2019-01-15T07:31:27.660Z,5.51
2019-01-15T07:32:27.590Z,5.48
2019-01-15T07:33:27.592Z,5.51
2019-01-15T07:34:27.555Z,5.55
2019-01-15T07:35:27.589Z,5.62
2019-01-15T07:36:27.584Z,5.66
2019-01-15T07:37:27.094Z,5.62
2019-01-15T07:38:27.571Z,5.65
2019-01-15T07:39:27.995Z,5.59
2019-01-15T07:40:28.169Z,5.65
2019-01-15T07:41:33.547Z,5.63
2019-01-15T07:42:27.561Z,5.65
2019-01-15T07:43:27.211Z,5.63
2019-01-15T07:44:27.766Z,5.74
2019-01-15T07:45:27.748Z,5.70
2019-01-15T07:46:27.220Z,5.69
2019-01-15T07:47:28.203Z,5.69
2019-01-15T07:48:27.133Z,5.65
2019-01-15T07:49:27.739Z,5.63
2019-01-15T07:50:28.166Z,5.75
2019-01-15T07:51:27.442Z,5.63
2019-01-15T07:52:27.519Z,5.74
2019-01-15T07:53:27.581Z,5.74
2019-01-15T07:54:27.713Z,5.74
2019-01-15T07:55:29.665Z,5.78
2019-01-15T07:56:29.672Z,5.77
2019-01-15T07:57:28.933Z,5.69
2019-01-15T07:58:27.934Z,5.75
2019-01-15T07:59:27.216Z,5.75
2019-01-15T08:00:27.349Z,5.84
2019-01-15T08:01:27.648Z,5.84
2019-01-15T08:02:27.356Z,5.81
2019-01-15T08:03:28.779Z,5.81
2019-01-15T08:04:33.431Z,5.74
2019-01-15T08:05:27.106Z,5.80
2019-01-15T08:06:27.840Z,5.77
2019-01-15T08:07:28.659Z,5.87
2019-01-15T08:08:27.688Z,5.78
2019-01-15T08:09:26.968Z,5.81
2019-01-15T08:10:26.938Z,5.78
2019-01-15T08:11:27.173Z,5.95
2019-01-15T08:12:26.987Z,5.93
2019-01-15T08:13:27.065Z,5.87
2019-01-15T08:14:26.968Z,6.06
2019-01-15T08:15:27.671Z,6.03
2019-01-15T08:16:27.187Z,5.88
2019-01-15T08:17:27.230Z,5.88
2019-01-15T08:18:27.669Z,5.87
2019-01-15T08:19:27.350Z,5.87
2019-01-15T08:20:27.656Z,6.08
2019-01-15T08:21:26.883Z,6.10
2019-01-15T08:22:26.982Z,6.02
2019-01-15T08:23:27.137Z,6.08
2019-01-15T08:24:26.459Z,6.13
2019-01-15T08:25:27.275Z,6.13
2019-01-15T08:26:27.201Z,6.05
2019-01-15T08:27:27.937Z,6.16
2019-01-15T08:28:27.237Z,6.10
2019-01-15T08:29:27.646Z,6.14
2019-01-15T08:30:26.998Z,6.05
2019-01-15T08:31:27.657Z,6.14
2019-01-15T08:32:26.957Z,6.25
2019-01-15T08:33:27.216Z,6.27
2019-01-15T08:34:27.647Z,6.14
2019-01-15T08:35:27.195Z,6.32
2019-01-15T08:36:28.603Z,6.13
2019-01-15T08:37:32.946Z,6.10
2019-01-15T08:38:27.167Z,6.19
2019-01-15T08:39:27.043Z,6.14
2019-01-15T08:40:26.995Z,6.17
2019-01-15T08:41:27.683Z,6.11
2019-01-15T08:42:26.569Z,6.08
2019-01-15T08:43:26.818Z,6.24
2019-01-15T08:44:28.836Z,6.27
2019-01-15T08:45:27.667Z,6.24
2019-01-15T08:46:27.686Z,6.08
2019-01-15T08:47:27.953Z,6.16
2019-01-15T08:48:27.677Z,6.27
2019-01-15T08:49:27.111Z,6.24
2019-01-15T08:50:27.179Z,6.25
2019-01-15T08:51:27.034Z,6.30
2019-01-15T08:52:26.998Z,6.35
2019-01-15T08:53:27.657Z,6.32
2019-01-15T08:54:27.203Z,6.35
2019-01-15T08:55:27.885Z,6.38
2019-01-15T08:56:28.757Z,6.27
2019-01-15T08:57:29.122Z,6.25
2019-01-15T08:58:27.077Z,6.40
2019-01-15T08:59:27.179Z,6.32
2019-01-15T09:00:26.694Z,6.40
2019-01-15T09:01:26.744Z,6.38
2019-01-15T09:02:26.800Z,6.35
2019-01-15T09:03:26.999Z,6.39
2019-01-15T09:04:26.626Z,6.38
2019-01-15T09:05:27.102Z,6.43
2019-01-15T09:06:29.163Z,6.40
2019-01-15T09:07:27.203Z,6.43
2019-01-15T09:08:27.181Z,6.45
2019-01-15T09:09:27.131Z,6.39
2019-01-15T09:10:28.011Z,6.48
2019-01-15T09:11:27.157Z,6.60
2019-01-15T09:12:26.447Z,6.57
2019-01-15T09:13:27.239Z,6.54
2019-01-15T09:14:27.248Z,6.51
2019-01-15T09:15:27.185Z,6.57
2019-01-15T09:16:27.457Z,6.54
2019-01-15T09:17:29.088Z,6.54
2019-01-15T09:18:26.344Z,6.58
2019-01-15T09:19:27.175Z,6.53
2019-01-15T09:20:26.384Z,6.57
2019-01-15T09:21:26.845Z,6.72
2019-01-15T09:22:27.123Z,6.78
2019-01-15T09:23:26.782Z,6.64
2019-01-15T09:24:26.683Z,6.68
2019-01-15T09:25:26.333Z,6.75
2019-01-15T09:26:26.723Z,6.81
2019-01-15T09:27:27.188Z,6.83
2019-01-15T09:28:26.224Z,6.78
2019-01-15T09:29:27.460Z,6.79
2019-01-15T09:30:26.853Z,6.78
2019-01-15T09:31:26.747Z,6.86
2019-01-15T09:32:27.171Z,6.83
2019-01-15T09:33:27.224Z,6.76
2019-01-15T09:34:26.409Z,6.81
2019-01-15T09:35:27.446Z,6.82
2019-01-15T09:36:26.613Z,6.82
2019-01-15T09:37:26.490Z,6.82
2019-01-15T09:38:26.383Z,6.73
2019-01-15T09:39:27.160Z,6.83
2019-01-15T09:40:26.361Z,6.87
2019-01-15T09:41:26.435Z,6.83
2019-01-15T09:42:26.277Z,6.89
2019-01-15T09:43:27.186Z,6.83
2019-01-15T09:44:26.341Z,6.90
2019-01-15T09:45:26.718Z,6.87
2019-01-15T09:46:26.335Z,6.86
2019-01-15T09:47:26.471Z,6.82
2019-01-15T09:48:26.727Z,6.91
2019-01-15T09:49:26.955Z,6.83
2019-01-15T09:50:26.753Z,6.91
2019-01-15T09:51:27.608Z,6.93
2019-01-15T09:52:26.728Z,6.90
2019-01-15T09:53:27.161Z,6.91
2019-01-15T09:54:27.167Z,6.91
2019-01-15T09:55:26.581Z,6.93
2019-01-15T09:56:26.346Z,6.91
2019-01-15T09:57:27.199Z,6.96
2019-01-15T09:58:26.214Z,6.99
2019-01-15T09:59:25.497Z,6.93
2019-01-15T10:00:28.239Z,6.96
2019-01-15T10:01:26.872Z,7.01
2019-01-15T10:02:27.101Z,7.05
2019-01-15T10:03:26.804Z,7.05
2019-01-15T10:04:27.049Z,6.94
2019-01-15T10:05:26.091Z,7.01
2019-01-15T10:06:26.490Z,7.04
2019-01-15T10:07:26.645Z,7.07
2019-01-15T10:08:28.676Z,7.00
2019-01-15T10:10:26.613Z,7.14
2019-01-15T10:11:26.341Z,7.08
2019-01-15T10:12:26.686Z,7.08
2019-01-15T10:13:25.752Z,7.12
2019-01-15T10:14:26.466Z,7.19
2019-01-15T10:15:26.623Z,7.12
2019-01-15T10:16:26.682Z,7.15
2019-01-15T10:17:25.920Z,7.15
2019-01-15T10:18:26.262Z,7.16
2019-01-15T10:19:28.697Z,7.18
2019-01-15T10:20:25.900Z,7.15
2019-01-15T10:21:26.062Z,7.23
2019-01-15T10:22:26.697Z,7.14
2019-01-15T10:23:28.712Z,7.18
2019-01-15T10:24:26.695Z,7.21
2019-01-15T10:25:26.021Z,7.09
2019-01-15T10:26:25.876Z,7.26
2019-01-15T10:27:26.286Z,7.12
2019-01-15T10:28:26.387Z,7.15
2019-01-15T10:29:26.203Z,7.15
2019-01-15T10:30:25.934Z,7.21
2019-01-15T10:31:27.189Z,7.26
2019-01-15T10:32:26.680Z,7.11
2019-01-15T10:33:25.911Z,7.21
2019-01-15T10:34:26.257Z,7.21
2019-01-15T10:35:26.688Z,7.18
2019-01-15T10:36:26.282Z,7.18
2019-01-15T10:37:26.267Z,7.24
2019-01-15T10:38:27.207Z,7.19
2019-01-15T10:39:26.509Z,7.21
2019-01-15T10:40:26.676Z,7.27
2019-01-15T10:41:26.962Z,7.11
2019-01-15T10:42:26.708Z,7.18
2019-01-15T10:43:26.070Z,7.29
2019-01-15T10:44:26.022Z,7.21
2019-01-15T10:45:26.028Z,7.23
2019-01-15T10:46:26.682Z,7.37
2019-01-15T10:47:26.708Z,7.34
2019-01-15T10:48:26.090Z,7.24
2019-01-15T10:49:26.666Z,7.36
2019-01-15T10:50:26.078Z,7.36
2019-01-15T10:51:25.988Z,7.33
2019-01-15T10:52:26.758Z,7.37
2019-01-15T10:53:25.772Z,7.47
2019-01-15T10:54:26.468Z,7.39
2019-01-15T10:55:26.959Z,7.42
2019-01-15T10:56:25.927Z,7.45
2019-01-15T10:57:26.678Z,7.47
2019-01-15T10:58:26.193Z,7.45
2019-01-15T10:59:26.135Z,7.48
2019-01-15T11:00:25.818Z,7.51
2019-01-15T11:01:25.771Z,7.52
2019-01-15T11:02:25.275Z,7.47
2019-01-15T11:03:26.690Z,7.47
2019-01-15T11:04:26.692Z,7.54
2019-01-15T11:05:26.691Z,7.57
2019-01-15T11:06:26.283Z,7.48
2019-01-15T11:07:27.988Z,7.50
2019-01-15T11:08:26.268Z,7.45
2019-01-15T11:09:26.142Z,7.55
2019-01-15T11:10:27.561Z,7.48
2019-01-15T11:11:25.346Z,7.51
2019-01-15T11:12:39.599Z,7.52
2019-01-15T11:13:25.907Z,7.51
2019-01-15T11:14:26.191Z,7.55
2019-01-15T11:15:26.177Z,7.60
2019-01-15T11:16:25.611Z,7.60
2019-01-15T11:17:25.519Z,7.58
2019-01-15T11:18:26.144Z,7.71
2019-01-15T11:19:25.602Z,7.62
2019-01-15T11:20:25.866Z,7.58
2019-01-15T11:21:25.609Z,7.69
2019-01-15T11:22:26.164Z,7.70
2019-01-15T11:23:26.182Z,7.55
2019-01-15T11:24:26.123Z,7.63
2019-01-15T11:25:26.483Z,7.69
2019-01-15T11:26:25.748Z,7.73
2019-01-15T11:27:25.962Z,7.71
2019-01-15T11:28:26.241Z,7.69
2019-01-15T11:29:26.610Z,7.70
2019-01-15T11:30:25.657Z,7.70
2019-01-15T11:31:25.956Z,7.81
2019-01-15T11:32:26.151Z,7.91
2019-01-15T11:33:25.745Z,7.88
2019-01-15T11:34:26.138Z,7.86
2019-01-15T11:35:25.805Z,7.76
2019-01-15T11:36:25.670Z,7.88
2019-01-15T11:37:26.558Z,7.76
2019-01-15T11:38:26.188Z,7.81
2019-01-15T11:39:25.879Z,7.92
2019-01-15T11:40:27.023Z,7.89
2019-01-15T11:41:26.016Z,7.92
2019-01-15T11:42:25.823Z,7.91
2019-01-15T11:43:25.630Z,7.91
2019-01-15T11:44:26.184Z,7.88
2019-01-15T11:46:59.699Z,7.92
2019-01-15T11:48:00.572Z,7.91
2019-01-15T11:49:53.742Z,7.88
2019-01-15T11:50:54.089Z,7.92
2019-01-15T11:52:48.733Z,8.00
2019-01-15T11:53:49.218Z,7.95
2019-01-15T11:55:42.795Z,8.02
2019-01-15T11:56:42.856Z,7.95
2019-01-15T11:58:38.169Z,7.91
2019-01-15T11:59:37.450Z,7.88
2019-01-15T12:01:30.917Z,7.91
2019-01-15T12:02:32.290Z,7.89
2019-01-15T12:04:25.797Z,7.84
2019-01-15T12:05:25.580Z,7.88
2019-01-15T12:06:26.096Z,7.84
2019-01-15T12:07:25.297Z,7.91
2019-01-15T12:08:25.665Z,7.91
2019-01-15T12:09:24.852Z,7.86
2019-01-15T12:10:25.163Z,7.85
2019-01-15T12:11:26.336Z,7.85
2019-01-15T12:12:25.561Z,7.81
2019-01-15T12:13:25.747Z,7.91
2019-01-15T12:14:24.820Z,7.86
2019-01-15T12:15:25.854Z,7.91
2019-01-15T12:16:25.380Z,7.94
2019-01-15T12:17:25.387Z,7.89
2019-01-15T12:18:26.325Z,7.74
2019-01-15T12:19:25.289Z,7.89
2019-01-15T12:20:25.336Z,7.85
2019-01-15T12:21:25.951Z,7.88
2019-01-15T12:22:25.821Z,7.88
2019-01-15T12:23:25.886Z,7.86
2019-01-15T12:24:24.919Z,7.89
2019-01-15T12:25:24.773Z,7.88
2019-01-15T12:26:25.857Z,7.91
2019-01-15T12:27:25.478Z,7.77
2019-01-15T12:28:25.619Z,7.85
2019-01-15T12:29:25.349Z,7.88
2019-01-15T12:30:27.326Z,7.79
2019-01-15T12:31:26.177Z,7.73
2019-01-15T12:32:25.021Z,7.91
2019-01-15T12:33:26.210Z,7.88
2019-01-15T12:34:25.119Z,7.86
2019-01-15T12:35:26.332Z,7.76
2019-01-15T12:36:26.339Z,7.84
2019-01-15T12:37:26.153Z,7.82
2019-01-15T12:38:27.171Z,7.86
2019-01-15T12:39:27.665Z,7.84
2019-01-15T12:40:25.044Z,7.86
2019-01-15T12:41:25.327Z,7.91
2019-01-15T12:42:27.034Z,7.88
2019-01-15T12:43:27.624Z,7.88
2019-01-15T12:44:25.393Z,7.91
2019-01-15T12:45:27.376Z,7.84
2019-01-15T12:46:25.605Z,7.84
2019-01-15T12:47:27.109Z,7.85
2019-01-15T12:48:25.237Z,7.79
2019-01-15T12:49:25.365Z,7.88
2019-01-15T12:50:25.817Z,7.84
2019-01-15T12:51:25.395Z,7.88
2019-01-15T12:52:25.615Z,7.94
2019-01-15T12:53:25.144Z,7.81
2019-01-15T12:54:25.224Z,7.86
2019-01-15T12:55:25.868Z,7.94
2019-01-15T12:56:25.188Z,7.91
2019-01-15T12:57:25.000Z,7.81
2019-01-15T12:58:25.845Z,7.79
2019-01-15T12:59:25.310Z,7.89
2019-01-15T13:00:25.369Z,7.77
2019-01-15T13:01:25.683Z,7.82
2019-01-15T13:02:27.471Z,7.88
2019-01-15T13:03:25.424Z,7.88
2019-01-15T13:04:25.810Z,7.88
2019-01-15T13:05:25.841Z,7.73
2019-01-15T13:06:25.001Z,7.84
2019-01-15T13:07:25.127Z,7.89
2019-01-15T13:08:25.839Z,7.92
2019-01-15T13:09:25.191Z,7.86
2019-01-15T13:10:25.822Z,7.89
2019-01-15T13:11:25.701Z,7.95
2019-01-15T13:12:25.346Z,7.88
2019-01-15T13:13:24.930Z,7.76
2019-01-15T13:14:25.004Z,7.84
2019-01-15T13:15:34.287Z,7.73
2019-01-15T13:16:25.334Z,7.74
2019-01-15T13:17:24.714Z,7.84
2019-01-15T13:18:25.304Z,7.89
2019-01-15T13:19:25.157Z,7.89
2019-01-15T13:20:25.337Z,7.92
2019-01-15T13:21:25.844Z,7.91
2019-01-15T13:22:25.124Z,7.85
2019-01-15T13:23:25.153Z,7.85
2019-01-15T13:24:25.818Z,7.85
2019-01-15T13:25:25.749Z,7.88
2019-01-15T13:26:25.268Z,7.85
2019-01-15T13:27:25.866Z,7.92
2019-01-15T13:28:27.692Z,7.91
2019-01-15T13:29:25.837Z,7.88
2019-01-15T13:30:24.696Z,7.85
2019-01-15T13:31:25.827Z,8.02